sensor_id;sensor_type;location;lat;lon;timestamp;P1;durP1;ratioP1;P2;durP2;ratioP2
53261;SDS011;39658;51.090;-1.786;2023-02-01T00:00:27;6.10;;;1.73;;
53261;SDS011;39658;51.090;-1.786;2023-02-01T00:02:54;22.08;;;2.03;;
53261;SDS011;39658;51.090;-1.786;2023-02-01T00:05:22;6.15;;;2.00;;
53261;SDS011;39658;51.090;-1.786;2023-02-01T00:07:49;7.32;;;2.05;;
53261;SDS011;39658;51.090;-1.786;2023-02-01T00:10:16;6.05;;;1.80;;
53261;SDS011;39658;51.090;-1.786;2023-02-01T00:12:44;5.90;;;1.80;;
53261;SDS011;39658;51.090;-1.786;2023-02-01T00:15:10;5.97;;;2.00;;
53261;SDS011;39658;51.090;-1.786;2023-02-01T00:17:38;6.72;;;2.00;;
53261;SDS011;39658;51.090;-1.786;2023-02-01T00:20:05;6.20;;;1.80;;
53261;SDS011;39658;51.090;-1.786;2023-02-01T00:22:34;5.72;;;1.83;;
53261;SDS011;39658;51.090;-1.786;2023-02-01T00:25:01;7.60;;;1.92;;
53261;SDS011;39658;51.090;-1.786;2023-02-01T00:27:28;7.35;;;1.90;;
53261;SDS011;39658;51.090;-1.786;2023-02-01T00:29:55;5.85;;;2.00;;
53261;SDS011;39658;51.090;-1.786;2023-02-01T00:32:22;7.13;;;1.80;;
53261;SDS011;39658;51.090;-1.786;2023-02-01T00:34:49;6.78;;;1.90;;
53261;SDS011;39658;51.090;-1.786;2023-02-01T00:37:15;5.60;;;1.90;;
53261;SDS011;39658;51.090;-1.786;2023-02-01T00:39:44;8.90;;;1.88;;
53261;SDS011;39658;51.090;-1.786;2023-02-01T00:42:10;5.05;;;1.80;;
53261;SDS011;39658;51.090;-1.786;2023-02-01T00:44:37;7.57;;;2.22;;
53261;SDS011;39658;51.090;-1.786;2023-02-01T00:47:04;5.57;;;1.73;;
53261;SDS011;39658;51.090;-1.786;2023-02-01T00:49:31;8.43;;;1.73;;
53261;SDS011;39658;51.090;-1.786;2023-02-01T00:51:58;6.72;;;1.98;;
53261;SDS011;39658;51.090;-1.786;2023-02-01T00:54:25;6.07;;;1.98;;
53261;SDS011;39658;51.090;-1.786;2023-02-01T00:56:53;5.93;;;2.03;;
53261;SDS011;39658;51.090;-1.786;2023-02-01T00:59:20;5.03;;;1.90;;
53261;SDS011;39658;51.090;-1.786;2023-02-01T01:01:46;9.30;;;1.58;;
53261;SDS011;39658;51.090;-1.786;2023-02-01T01:04:13;7.32;;;2.13;;
53261;SDS011;39658;51.090;-1.786;2023-02-01T01:06:40;5.88;;;2.03;;
53261;SDS011;39658;51.090;-1.786;2023-02-01T01:09:08;5.30;;;1.80;;
53261;SDS011;39658;51.090;-1.786;2023-02-01T01:11:36;6.70;;;1.95;;
53261;SDS011;39658;51.090;-1.786;2023-02-01T01:14:05;8.60;;;2.30;;
53261;SDS011;39658;51.090;-1.786;2023-02-01T01:16:34;6.60;;;2.28;;
53261;SDS011;39658;51.090;-1.786;2023-02-01T01:19:01;5.97;;;1.88;;
53261;SDS011;39658;51.090;-1.786;2023-02-01T01:21:29;5.93;;;1.92;;
53261;SDS011;39658;51.090;-1.786;2023-02-01T01:23:56;7.13;;;2.20;;
53261;SDS011;39658;51.090;-1.786;2023-02-01T01:26:24;7.97;;;2.10;;
53261;SDS011;39658;51.090;-1.786;2023-02-01T01:28:54;8.00;;;2.15;;
53261;SDS011;39658;51.090;-1.786;2023-02-01T01:31:23;5.13;;;1.77;;
53261;SDS011;39658;51.090;-1.786;2023-02-01T01:33:51;6.95;;;1.90;;
53261;SDS011;39658;51.090;-1.786;2023-02-01T01:36:19;5.75;;;1.80;;
53261;SDS011;39658;51.090;-1.786;2023-02-01T01:38:47;6.88;;;1.92;;
53261;SDS011;39658;51.090;-1.786;2023-02-01T01:41:15;5.57;;;1.80;;
53261;SDS011;39658;51.090;-1.786;2023-02-01T01:43:47;7.60;;;1.60;;
53261;SDS011;39658;51.090;-1.786;2023-02-01T01:46:18;6.15;;;1.90;;
53261;SDS011;39658;51.090;-1.786;2023-02-01T01:48:49;6.35;;;1.80;;
53261;SDS011;39658;51.090;-1.786;2023-02-01T01:51:19;6.43;;;2.03;;
53261;SDS011;39658;51.090;-1.786;2023-02-01T01:53:51;6.97;;;2.17;;
53261;SDS011;39658;51.090;-1.786;2023-02-01T01:56:23;5.50;;;1.95;;
53261;SDS011;39658;51.090;-1.786;2023-02-01T01:58:53;6.80;;;2.10;;
53261;SDS011;39658;51.090;-1.786;2023-02-01T02:01:20;5.93;;;2.20;;
53261;SDS011;39658;51.090;-1.786;2023-02-01T02:03:49;8.85;;;2.00;;
53261;SDS011;39658;51.090;-1.786;2023-02-01T02:06:19;5.78;;;1.83;;
53261;SDS011;39658;51.090;-1.786;2023-02-01T02:08:53;5.55;;;1.80;;
53261;SDS011;39658;51.090;-1.786;2023-02-01T02:11:20;7.63;;;2.10;;
53261;SDS011;39658;51.090;-1.786;2023-02-01T02:13:48;8.77;;;2.00;;
53261;SDS011;39658;51.090;-1.786;2023-02-01T02:16:36;5.68;;;1.92;;
53261;SDS011;39658;51.090;-1.786;2023-02-01T02:19:19;5.60;;;1.80;;
53261;SDS011;39658;51.090;-1.786;2023-02-01T02:22:12;5.80;;;1.83;;
53261;SDS011;39658;51.090;-1.786;2023-02-01T02:25:31;6.50;;;1.83;;
53261;SDS011;39658;51.090;-1.786;2023-02-01T02:28:29;7.13;;;2.10;;
53261;SDS011;39658;51.090;-1.786;2023-02-01T02:33:58;6.38;;;2.00;;
53261;SDS011;39658;51.090;-1.786;2023-02-01T02:36:34;6.53;;;1.80;;
53261;SDS011;39658;51.090;-1.786;2023-02-01T02:39:10;5.40;;;1.70;;
53261;SDS011;39658;51.090;-1.786;2023-02-01T02:41:47;6.07;;;1.90;;
53261;SDS011;39658;51.090;-1.786;2023-02-01T02:44:40;5.27;;;1.67;;
53261;SDS011;39658;51.090;-1.786;2023-02-01T02:47:31;5.78;;;1.90;;
53261;SDS011;39658;51.090;-1.786;2023-02-01T02:50:17;5.97;;;1.90;;
53261;SDS011;39658;51.090;-1.786;2023-02-01T02:53:09;7.38;;;1.92;;
53261;SDS011;39658;51.090;-1.786;2023-02-01T02:55:56;6.38;;;2.00;;
53261;SDS011;39658;51.090;-1.786;2023-02-01T02:58:43;6.05;;;1.70;;
53261;SDS011;39658;51.090;-1.786;2023-02-01T03:01:29;6.38;;;1.80;;
53261;SDS011;39658;51.090;-1.786;2023-02-01T03:04:14;7.63;;;2.17;;
53261;SDS011;39658;51.090;-1.786;2023-02-01T03:06:44;5.60;;;1.90;;
53261;SDS011;39658;51.090;-1.786;2023-02-01T03:09:13;6.15;;;1.92;;
53261;SDS011;39658;51.090;-1.786;2023-02-01T03:11:45;4.97;;;1.70;;
53261;SDS011;39658;51.090;-1.786;2023-02-01T03:14:32;7.18;;;1.90;;
53261;SDS011;39658;51.090;-1.786;2023-02-01T03:17:05;6.90;;;2.20;;
53261;SDS011;39658;51.090;-1.786;2023-02-01T03:19:37;5.65;;;1.75;;
53261;SDS011;39658;51.090;-1.786;2023-02-01T03:22:10;5.88;;;1.88;;
53261;SDS011;39658;51.090;-1.786;2023-02-01T03:24:41;5.90;;;1.75;;
53261;SDS011;39658;51.090;-1.786;2023-02-01T03:27:12;5.97;;;1.77;;
53261;SDS011;39658;51.090;-1.786;2023-02-01T03:32:12;6.43;;;1.73;;
53261;SDS011;39658;51.090;-1.786;2023-02-01T03:34:39;5.90;;;1.75;;
53261;SDS011;39658;51.090;-1.786;2023-02-01T03:37:06;5.28;;;1.67;;
53261;SDS011;39658;51.090;-1.786;2023-02-01T03:39:39;5.22;;;1.70;;
53261;SDS011;39658;51.090;-1.786;2023-02-01T03:42:10;7.00;;;1.80;;
53261;SDS011;39658;51.090;-1.786;2023-02-01T03:44:44;5.72;;;1.80;;
53261;SDS011;39658;51.090;-1.786;2023-02-01T03:47:16;6.38;;;2.00;;
53261;SDS011;39658;51.090;-1.786;2023-02-01T03:49:48;6.68;;;2.00;;
53261;SDS011;39658;51.090;-1.786;2023-02-01T03:52:20;5.85;;;1.50;;
53261;SDS011;39658;51.090;-1.786;2023-02-01T03:54:49;5.95;;;1.80;;
53261;SDS011;39658;51.090;-1.786;2023-02-01T03:57:19;6.38;;;2.00;;
53261;SDS011;39658;51.090;-1.786;2023-02-01T03:59:51;7.68;;;2.17;;
53261;SDS011;39658;51.090;-1.786;2023-02-01T04:02:18;5.72;;;1.85;;
53261;SDS011;39658;51.090;-1.786;2023-02-01T04:04:45;5.85;;;1.75;;
53261;SDS011;39658;51.090;-1.786;2023-02-01T04:07:12;6.03;;;1.77;;
53261;SDS011;39658;51.090;-1.786;2023-02-01T04:09:40;5.40;;;1.60;;
53261;SDS011;39658;51.090;-1.786;2023-02-01T04:12:07;5.45;;;1.63;;
53261;SDS011;39658;51.090;-1.786;2023-02-01T04:14:34;5.88;;;1.63;;
53261;SDS011;39658;51.090;-1.786;2023-02-01T04:17:00;5.60;;;1.88;;
53261;SDS011;39658;51.090;-1.786;2023-02-01T04:19:27;5.93;;;1.90;;
53261;SDS011;39658;51.090;-1.786;2023-02-01T04:21:54;5.15;;;1.75;;
53261;SDS011;39658;51.090;-1.786;2023-02-01T04:24:21;6.35;;;2.00;;
53261;SDS011;39658;51.090;-1.786;2023-02-01T04:26:49;5.32;;;1.80;;
53261;SDS011;39658;51.090;-1.786;2023-02-01T04:29:16;6.05;;;2.00;;
53261;SDS011;39658;51.090;-1.786;2023-02-01T04:31:43;5.85;;;1.73;;
53261;SDS011;39658;51.090;-1.786;2023-02-01T04:34:11;7.18;;;1.63;;
53261;SDS011;39658;51.090;-1.786;2023-02-01T04:36:38;5.00;;;1.88;;
53261;SDS011;39658;51.090;-1.786;2023-02-01T04:39:05;6.15;;;1.90;;
53261;SDS011;39658;51.090;-1.786;2023-02-01T04:41:31;5.47;;;1.58;;
53261;SDS011;39658;51.090;-1.786;2023-02-01T04:44:00;5.32;;;1.80;;
53261;SDS011;39658;51.090;-1.786;2023-02-01T04:46:26;4.90;;;1.63;;
53261;SDS011;39658;51.090;-1.786;2023-02-01T04:48:53;5.57;;;1.80;;
53261;SDS011;39658;51.090;-1.786;2023-02-01T04:51:20;6.78;;;1.95;;
53261;SDS011;39658;51.090;-1.786;2023-02-01T04:53:47;5.20;;;1.80;;
53261;SDS011;39658;51.090;-1.786;2023-02-01T04:56:14;5.95;;;1.85;;
53261;SDS011;39658;51.090;-1.786;2023-02-01T04:58:41;5.03;;;1.60;;
53261;SDS011;39658;51.090;-1.786;2023-02-01T05:01:09;6.93;;;1.85;;
53261;SDS011;39658;51.090;-1.786;2023-02-01T05:03:36;5.40;;;1.80;;
53261;SDS011;39658;51.090;-1.786;2023-02-01T05:06:03;8.02;;;1.70;;
53261;SDS011;39658;51.090;-1.786;2023-02-01T05:08:30;6.55;;;1.85;;
53261;SDS011;39658;51.090;-1.786;2023-02-01T05:10:57;4.93;;;1.70;;
53261;SDS011;39658;51.090;-1.786;2023-02-01T05:13:27;5.57;;;1.70;;
53261;SDS011;39658;51.090;-1.786;2023-02-01T05:16:13;6.40;;;1.90;;
53261;SDS011;39658;51.090;-1.786;2023-02-01T05:18:40;4.60;;;1.60;;
53261;SDS011;39658;51.090;-1.786;2023-02-01T05:21:07;7.00;;;1.75;;
53261;SDS011;39658;51.090;-1.786;2023-02-01T05:23:34;4.20;;;1.55;;
53261;SDS011;39658;51.090;-1.786;2023-02-01T05:26:21;6.28;;;1.90;;
53261;SDS011;39658;51.090;-1.786;2023-02-01T05:28:48;5.68;;;1.80;;
53261;SDS011;39658;51.090;-1.786;2023-02-01T05:31:16;6.85;;;2.05;;
53261;SDS011;39658;51.090;-1.786;2023-02-01T05:33:43;7.35;;;1.88;;
53261;SDS011;39658;51.090;-1.786;2023-02-01T05:36:10;6.15;;;1.50;;
53261;SDS011;39658;51.090;-1.786;2023-02-01T05:38:37;5.50;;;1.80;;
53261;SDS011;39658;51.090;-1.786;2023-02-01T05:41:03;5.25;;;1.63;;
53261;SDS011;39658;51.090;-1.786;2023-02-01T05:43:30;5.57;;;1.80;;
53261;SDS011;39658;51.090;-1.786;2023-02-01T05:45:57;5.57;;;1.70;;
53261;SDS011;39658;51.090;-1.786;2023-02-01T05:48:26;6.00;;;1.98;;
53261;SDS011;39658;51.090;-1.786;2023-02-01T05:50:52;5.82;;;1.63;;
53261;SDS011;39658;51.090;-1.786;2023-02-01T05:53:19;5.50;;;1.75;;
53261;SDS011;39658;51.090;-1.786;2023-02-01T05:55:46;5.03;;;1.60;;
53261;SDS011;39658;51.090;-1.786;2023-02-01T05:58:13;5.25;;;1.80;;
53261;SDS011;39658;51.090;-1.786;2023-02-01T06:00:40;5.28;;;1.70;;
53261;SDS011;39658;51.090;-1.786;2023-02-01T06:03:06;5.63;;;1.70;;
53261;SDS011;39658;51.090;-1.786;2023-02-01T06:05:35;5.30;;;1.67;;
53261;SDS011;39658;51.090;-1.786;2023-02-01T06:08:02;6.32;;;1.52;;
53261;SDS011;39658;51.090;-1.786;2023-02-01T06:10:29;4.50;;;1.60;;
53261;SDS011;39658;51.090;-1.786;2023-02-01T06:12:56;6.10;;;1.90;;
53261;SDS011;39658;51.090;-1.786;2023-02-01T06:15:23;4.90;;;1.67;;
53261;SDS011;39658;51.090;-1.786;2023-02-01T06:17:49;5.28;;;1.60;;
53261;SDS011;39658;51.090;-1.786;2023-02-01T06:20:16;6.18;;;1.88;;
53261;SDS011;39658;51.090;-1.786;2023-02-01T06:22:45;5.55;;;1.88;;
53261;SDS011;39658;51.090;-1.786;2023-02-01T06:25:12;5.13;;;1.50;;
53261;SDS011;39658;51.090;-1.786;2023-02-01T06:27:39;4.97;;;1.60;;
53261;SDS011;39658;51.090;-1.786;2023-02-01T06:30:07;5.88;;;1.80;;
53261;SDS011;39658;51.090;-1.786;2023-02-01T06:32:34;8.23;;;2.08;;
53261;SDS011;39658;51.090;-1.786;2023-02-01T06:35:01;5.70;;;1.80;;
53261;SDS011;39658;51.090;-1.786;2023-02-01T06:37:28;4.70;;;1.60;;
53261;SDS011;39658;51.090;-1.786;2023-02-01T06:39:56;4.93;;;1.42;;
53261;SDS011;39658;51.090;-1.786;2023-02-01T06:42:23;5.93;;;1.75;;
53261;SDS011;39658;51.090;-1.786;2023-02-01T06:44:50;4.90;;;1.63;;
53261;SDS011;39658;51.090;-1.786;2023-02-01T06:47:17;5.55;;;1.75;;
53261;SDS011;39658;51.090;-1.786;2023-02-01T06:49:44;3.72;;;1.30;;
53261;SDS011;39658;51.090;-1.786;2023-02-01T06:52:11;5.07;;;1.60;;
53261;SDS011;39658;51.090;-1.786;2023-02-01T06:54:38;5.40;;;1.60;;
53261;SDS011;39658;51.090;-1.786;2023-02-01T06:57:06;4.88;;;1.63;;
53261;SDS011;39658;51.090;-1.786;2023-02-01T06:59:33;4.68;;;1.52;;
53261;SDS011;39658;51.090;-1.786;2023-02-01T07:02:00;4.78;;;1.50;;
53261;SDS011;39658;51.090;-1.786;2023-02-01T07:04:26;4.70;;;1.52;;
53261;SDS011;39658;51.090;-1.786;2023-02-01T07:06:53;4.68;;;1.70;;
53261;SDS011;39658;51.090;-1.786;2023-02-01T07:09:20;5.78;;;1.67;;
53261;SDS011;39658;51.090;-1.786;2023-02-01T07:11:47;3.70;;;1.20;;
53261;SDS011;39658;51.090;-1.786;2023-02-01T07:14:15;5.60;;;1.70;;
53261;SDS011;39658;51.090;-1.786;2023-02-01T07:16:42;4.97;;;1.55;;
53261;SDS011;39658;51.090;-1.786;2023-02-01T07:19:09;4.85;;;1.63;;
53261;SDS011;39658;51.090;-1.786;2023-02-01T07:21:36;5.72;;;1.73;;
53261;SDS011;39658;51.090;-1.786;2023-02-01T07:24:03;5.60;;;1.90;;
53261;SDS011;39658;51.090;-1.786;2023-02-01T07:26:30;5.10;;;1.83;;
53261;SDS011;39658;51.090;-1.786;2023-02-01T07:28:57;5.07;;;1.70;;
53261;SDS011;39658;51.090;-1.786;2023-02-01T07:31:26;6.32;;;1.70;;
53261;SDS011;39658;51.090;-1.786;2023-02-01T07:33:54;6.18;;;1.83;;
53261;SDS011;39658;51.090;-1.786;2023-02-01T07:36:22;8.07;;;2.00;;
53261;SDS011;39658;51.090;-1.786;2023-02-01T07:38:49;6.70;;;1.83;;
53261;SDS011;39658;51.090;-1.786;2023-02-01T07:41:17;6.97;;;1.92;;
53261;SDS011;39658;51.090;-1.786;2023-02-01T07:43:44;6.45;;;1.80;;
53261;SDS011;39658;51.090;-1.786;2023-02-01T07:46:11;6.95;;;1.80;;
53261;SDS011;39658;51.090;-1.786;2023-02-01T07:48:41;7.43;;;2.00;;
53261;SDS011;39658;51.090;-1.786;2023-02-01T07:51:09;8.20;;;1.98;;
53261;SDS011;39658;51.090;-1.786;2023-02-01T07:53:37;11.07;;;2.00;;
53261;SDS011;39658;51.090;-1.786;2023-02-01T07:56:09;18.38;;;3.10;;
53261;SDS011;39658;51.090;-1.786;2023-02-01T07:58:38;12.35;;;3.28;;
53261;SDS011;39658;51.090;-1.786;2023-02-01T08:01:05;17.13;;;3.50;;
53261;SDS011;39658;51.090;-1.786;2023-02-01T08:03:48;14.07;;;3.38;;
53261;SDS011;39658;51.090;-1.786;2023-02-01T08:06:15;12.80;;;3.33;;
53261;SDS011;39658;51.090;-1.786;2023-02-01T08:08:44;13.32;;;3.40;;
53261;SDS011;39658;51.090;-1.786;2023-02-01T08:11:12;12.23;;;3.13;;
53261;SDS011;39658;51.090;-1.786;2023-02-01T08:13:40;12.75;;;3.28;;
53261;SDS011;39658;51.090;-1.786;2023-02-01T08:16:07;11.82;;;3.03;;
53261;SDS011;39658;51.090;-1.786;2023-02-01T08:18:37;11.82;;;2.97;;
53261;SDS011;39658;51.090;-1.786;2023-02-01T08:21:07;10.90;;;2.70;;
53261;SDS011;39658;51.090;-1.786;2023-02-01T08:23:35;12.60;;;3.00;;
53261;SDS011;39658;51.090;-1.786;2023-02-01T08:26:04;11.52;;;2.92;;
53261;SDS011;39658;51.090;-1.786;2023-02-01T08:28:32;11.00;;;2.80;;
53261;SDS011;39658;51.090;-1.786;2023-02-01T08:31:03;11.38;;;3.30;;
53261;SDS011;39658;51.090;-1.786;2023-02-01T08:33:30;9.93;;;2.85;;
53261;SDS011;39658;51.090;-1.786;2023-02-01T08:35:57;9.60;;;2.80;;
53261;SDS011;39658;51.090;-1.786;2023-02-01T08:38:27;11.48;;;2.83;;
53261;SDS011;39658;51.090;-1.786;2023-02-01T08:40:54;11.32;;;2.88;;
53261;SDS011;39658;51.090;-1.786;2023-02-01T08:43:21;11.75;;;2.92;;
53261;SDS011;39658;51.090;-1.786;2023-02-01T08:45:48;11.05;;;3.03;;
53261;SDS011;39658;51.090;-1.786;2023-02-01T08:48:16;9.68;;;3.10;;
53261;SDS011;39658;51.090;-1.786;2023-02-01T08:50:43;9.05;;;2.90;;
53261;SDS011;39658;51.090;-1.786;2023-02-01T08:53:09;11.60;;;2.88;;
53261;SDS011;39658;51.090;-1.786;2023-02-01T08:55:40;8.77;;;3.10;;
53261;SDS011;39658;51.090;-1.786;2023-02-01T08:58:07;10.88;;;2.88;;
53261;SDS011;39658;51.090;-1.786;2023-02-01T09:00:34;9.38;;;2.88;;
53261;SDS011;39658;51.090;-1.786;2023-02-01T09:03:00;10.00;;;3.00;;
53261;SDS011;39658;51.090;-1.786;2023-02-01T09:05:27;13.30;;;2.55;;
53261;SDS011;39658;51.090;-1.786;2023-02-01T09:07:54;11.07;;;2.83;;
53261;SDS011;39658;51.090;-1.786;2023-02-01T09:10:21;9.32;;;2.78;;
53261;SDS011;39658;51.090;-1.786;2023-02-01T09:12:49;9.85;;;2.70;;
53261;SDS011;39658;51.090;-1.786;2023-02-01T09:15:17;9.82;;;2.85;;
53261;SDS011;39658;51.090;-1.786;2023-02-01T09:17:44;9.50;;;2.53;;
53261;SDS011;39658;51.090;-1.786;2023-02-01T09:20:11;8.38;;;2.75;;
53261;SDS011;39658;51.090;-1.786;2023-02-01T09:22:38;10.90;;;2.30;;
53261;SDS011;39658;51.090;-1.786;2023-02-01T09:25:06;10.93;;;2.70;;
53261;SDS011;39658;51.090;-1.786;2023-02-01T09:27:33;7.75;;;2.30;;
53261;SDS011;39658;51.090;-1.786;2023-02-01T09:30:02;13.70;;;3.35;;
53261;SDS011;39658;51.090;-1.786;2023-02-01T09:32:30;11.80;;;3.40;;
53261;SDS011;39658;51.090;-1.786;2023-02-01T09:34:57;14.73;;;3.13;;
53261;SDS011;39658;51.090;-1.786;2023-02-01T09:37:24;11.35;;;3.50;;
53261;SDS011;39658;51.090;-1.786;2023-02-01T09:39:51;17.75;;;3.88;;
53261;SDS011;39658;51.090;-1.786;2023-02-01T09:42:21;17.30;;;3.33;;
53261;SDS011;39658;51.090;-1.786;2023-02-01T09:45:09;20.48;;;3.83;;
53261;SDS011;39658;51.090;-1.786;2023-02-01T09:47:45;17.98;;;3.92;;
53261;SDS011;39658;51.090;-1.786;2023-02-01T09:50:15;13.25;;;3.90;;
53261;SDS011;39658;51.090;-1.786;2023-02-01T09:52:48;20.92;;;4.30;;
53261;SDS011;39658;51.090;-1.786;2023-02-01T09:55:20;17.70;;;3.80;;
53261;SDS011;39658;51.090;-1.786;2023-02-01T09:58:01;16.90;;;4.03;;
53261;SDS011;39658;51.090;-1.786;2023-02-01T10:00:35;14.88;;;3.70;;
53261;SDS011;39658;51.090;-1.786;2023-02-01T10:03:05;19.02;;;3.92;;
53261;SDS011;39658;51.090;-1.786;2023-02-01T10:05:41;15.88;;;4.00;;
53261;SDS011;39658;51.090;-1.786;2023-02-01T10:08:23;12.27;;;3.70;;
53261;SDS011;39658;51.090;-1.786;2023-02-01T10:11:00;16.23;;;4.00;;
53261;SDS011;39658;51.090;-1.786;2023-02-01T10:13:40;14.32;;;3.90;;
53261;SDS011;39658;51.090;-1.786;2023-02-01T10:16:20;13.23;;;3.72;;
53261;SDS011;39658;51.090;-1.786;2023-02-01T10:21:51;10.90;;;3.45;;
53261;SDS011;39658;51.090;-1.786;2023-02-01T10:24:26;14.68;;;3.88;;
53261;SDS011;39658;51.090;-1.786;2023-02-01T10:27:01;16.30;;;4.10;;
53261;SDS011;39658;51.090;-1.786;2023-02-01T10:29:36;14.40;;;3.33;;
53261;SDS011;39658;51.090;-1.786;2023-02-01T10:32:11;13.23;;;3.60;;
53261;SDS011;39658;51.090;-1.786;2023-02-01T10:34:41;18.02;;;4.35;;
53261;SDS011;39658;51.090;-1.786;2023-02-01T10:37:13;14.20;;;3.53;;
53261;SDS011;39658;51.090;-1.786;2023-02-01T10:39:46;14.82;;;4.10;;
53261;SDS011;39658;51.090;-1.786;2023-02-01T10:42:14;12.13;;;3.63;;
53261;SDS011;39658;51.090;-1.786;2023-02-01T10:44:42;12.43;;;3.20;;
53261;SDS011;39658;51.090;-1.786;2023-02-01T10:47:14;14.20;;;3.85;;
53261;SDS011;39658;51.090;-1.786;2023-02-01T10:49:43;14.15;;;3.55;;
53261;SDS011;39658;51.090;-1.786;2023-02-01T10:52:16;10.38;;;3.35;;
53261;SDS011;39658;51.090;-1.786;2023-02-01T10:54:46;13.73;;;4.07;;
53261;SDS011;39658;51.090;-1.786;2023-02-01T10:57:20;14.45;;;3.67;;
53261;SDS011;39658;51.090;-1.786;2023-02-01T10:59:49;14.32;;;3.50;;
53261;SDS011;39658;51.090;-1.786;2023-02-01T11:02:22;10.30;;;3.08;;
53261;SDS011;39658;51.090;-1.786;2023-02-01T11:04:58;9.65;;;3.15;;
53261;SDS011;39658;51.090;-1.786;2023-02-01T11:09:54;10.82;;;3.40;;
53261;SDS011;39658;51.090;-1.786;2023-02-01T11:12:30;12.50;;;3.40;;
53261;SDS011;39658;51.090;-1.786;2023-02-01T11:14:59;10.48;;;3.55;;
53261;SDS011;39658;51.090;-1.786;2023-02-01T11:17:32;16.63;;;3.45;;
53261;SDS011;39658;51.090;-1.786;2023-02-01T11:20:02;16.13;;;3.65;;
53261;SDS011;39658;51.090;-1.786;2023-02-01T11:22:31;12.93;;;3.97;;
53261;SDS011;39658;51.090;-1.786;2023-02-01T11:24:58;16.73;;;4.47;;
53261;SDS011;39658;51.090;-1.786;2023-02-01T11:27:27;12.60;;;3.72;;
53261;SDS011;39658;51.090;-1.786;2023-02-01T11:29:55;16.55;;;3.88;;
53261;SDS011;39658;51.090;-1.786;2023-02-01T11:32:27;15.37;;;4.77;;
53261;SDS011;39658;51.090;-1.786;2023-02-01T11:34:57;15.60;;;4.20;;
53261;SDS011;39658;51.090;-1.786;2023-02-01T11:37:27;15.40;;;4.15;;
53261;SDS011;39658;51.090;-1.786;2023-02-01T11:39:58;16.33;;;4.30;;
53261;SDS011;39658;51.090;-1.786;2023-02-01T11:42:27;23.35;;;4.60;;
53261;SDS011;39658;51.090;-1.786;2023-02-01T11:45:09;18.80;;;4.32;;
53261;SDS011;39658;51.090;-1.786;2023-02-01T11:47:44;20.00;;;4.53;;
53261;SDS011;39658;51.090;-1.786;2023-02-01T11:50:14;19.67;;;4.28;;
53261;SDS011;39658;51.090;-1.786;2023-02-01T11:52:47;22.70;;;4.60;;
53261;SDS011;39658;51.090;-1.786;2023-02-01T11:55:31;14.27;;;4.50;;
53261;SDS011;39658;51.090;-1.786;2023-02-01T11:58:23;28.48;;;6.22;;
53261;SDS011;39658;51.090;-1.786;2023-02-01T12:01:07;17.27;;;4.40;;
53261;SDS011;39658;51.090;-1.786;2023-02-01T12:06:49;16.77;;;4.35;;
53261;SDS011;39658;51.090;-1.786;2023-02-01T12:09:23;16.88;;;3.80;;
53261;SDS011;39658;51.090;-1.786;2023-02-01T12:12:15;19.20;;;4.50;;
53261;SDS011;39658;51.090;-1.786;2023-02-01T12:14:53;14.27;;;4.07;;
53261;SDS011;39658;51.090;-1.786;2023-02-01T12:20:53;24.02;;;4.68;;
53261;SDS011;39658;51.090;-1.786;2023-02-01T12:23:37;15.75;;;3.75;;
53261;SDS011;39658;51.090;-1.786;2023-02-01T12:29:14;16.60;;;4.32;;
53261;SDS011;39658;51.090;-1.786;2023-02-01T12:34:58;16.38;;;4.43;;
53261;SDS011;39658;51.090;-1.786;2023-02-01T12:37:44;14.88;;;3.90;;
53261;SDS011;39658;51.090;-1.786;2023-02-01T12:40:25;18.33;;;3.30;;
53261;SDS011;39658;51.090;-1.786;2023-02-01T12:43:03;17.88;;;4.60;;
53261;SDS011;39658;51.090;-1.786;2023-02-01T12:45:36;13.80;;;3.67;;
53261;SDS011;39658;51.090;-1.786;2023-02-01T12:48:12;14.20;;;3.92;;
53261;SDS011;39658;51.090;-1.786;2023-02-01T12:50:50;12.88;;;3.67;;
53261;SDS011;39658;51.090;-1.786;2023-02-01T12:53:22;12.48;;;3.65;;
53261;SDS011;39658;51.090;-1.786;2023-02-01T12:55:54;17.98;;;4.13;;
53261;SDS011;39658;51.090;-1.786;2023-02-01T12:58:24;11.45;;;3.50;;
53261;SDS011;39658;51.090;-1.786;2023-02-01T13:00:55;11.75;;;3.72;;
53261;SDS011;39658;51.090;-1.786;2023-02-01T13:03:28;14.73;;;3.75;;
53261;SDS011;39658;51.090;-1.786;2023-02-01T13:06:02;13.63;;;3.78;;
53261;SDS011;39658;51.090;-1.786;2023-02-01T13:08:37;13.52;;;3.75;;
53261;SDS011;39658;51.090;-1.786;2023-02-01T13:11:11;14.60;;;3.33;;
53261;SDS011;39658;51.090;-1.786;2023-02-01T13:13:45;14.65;;;4.07;;
53261;SDS011;39658;51.090;-1.786;2023-02-01T13:16:21;14.15;;;4.05;;
53261;SDS011;39658;51.090;-1.786;2023-02-01T13:18:57;9.75;;;2.95;;
53261;SDS011;39658;51.090;-1.786;2023-02-01T13:21:31;11.23;;;3.22;;
53261;SDS011;39658;51.090;-1.786;2023-02-01T13:24:01;14.45;;;3.58;;
53261;SDS011;39658;51.090;-1.786;2023-02-01T13:26:31;13.05;;;3.60;;
53261;SDS011;39658;51.090;-1.786;2023-02-01T13:28:58;15.65;;;3.38;;
53261;SDS011;39658;51.090;-1.786;2023-02-01T13:37:34;13.80;;;3.65;;
53261;SDS011;39658;51.090;-1.786;2023-02-01T13:40:26;13.38;;;4.15;;
53261;SDS011;39658;51.090;-1.786;2023-02-01T13:45:33;14.27;;;3.42;;
53261;SDS011;39658;51.090;-1.786;2023-02-01T13:48:04;12.88;;;3.42;;
53261;SDS011;39658;51.090;-1.786;2023-02-01T13:50:32;9.82;;;3.28;;
53261;SDS011;39658;51.090;-1.786;2023-02-01T13:53:03;13.77;;;3.15;;
53261;SDS011;39658;51.090;-1.786;2023-02-01T13:55:40;15.48;;;3.67;;
53261;SDS011;39658;51.090;-1.786;2023-02-01T13:58:15;11.50;;;3.60;;
53261;SDS011;39658;51.090;-1.786;2023-02-01T14:00:45;12.02;;;3.28;;
53261;SDS011;39658;51.090;-1.786;2023-02-01T14:03:14;13.75;;;3.55;;
53261;SDS011;39658;51.090;-1.786;2023-02-01T14:08:46;11.80;;;3.22;;
53261;SDS011;39658;51.090;-1.786;2023-02-01T14:11:38;13.60;;;3.15;;
53261;SDS011;39658;51.090;-1.786;2023-02-01T14:23:17;10.80;;;3.13;;
53261;SDS011;39658;51.090;-1.786;2023-02-01T14:26:03;9.55;;;2.85;;
53261;SDS011;39658;51.090;-1.786;2023-02-01T14:28:35;10.43;;;2.40;;
53261;SDS011;39658;51.090;-1.786;2023-02-01T14:31:17;9.02;;;2.83;;
53261;SDS011;39658;51.090;-1.786;2023-02-01T14:34:02;11.60;;;2.85;;
53261;SDS011;39658;51.090;-1.786;2023-02-01T14:36:41;13.02;;;2.78;;
53261;SDS011;39658;51.090;-1.786;2023-02-01T14:42:06;13.40;;;3.00;;
53261;SDS011;39658;51.090;-1.786;2023-02-01T14:44:44;12.00;;;2.85;;
53261;SDS011;39658;51.090;-1.786;2023-02-01T14:53:04;11.10;;;2.63;;
53261;SDS011;39658;51.090;-1.786;2023-02-01T14:58:14;10.15;;;2.67;;
53261;SDS011;39658;51.090;-1.786;2023-02-01T15:00:47;8.23;;;2.85;;
53261;SDS011;39658;51.090;-1.786;2023-02-01T15:03:32;9.68;;;2.63;;
53261;SDS011;39658;51.090;-1.786;2023-02-01T15:06:14;9.27;;;2.60;;
53261;SDS011;39658;51.090;-1.786;2023-02-01T15:08:52;7.90;;;2.50;;
53261;SDS011;39658;51.090;-1.786;2023-02-01T15:11:22;7.82;;;2.85;;
53261;SDS011;39658;51.090;-1.786;2023-02-01T15:13:49;8.35;;;2.28;;
53261;SDS011;39658;51.090;-1.786;2023-02-01T15:16:19;9.38;;;2.53;;
53261;SDS011;39658;51.090;-1.786;2023-02-01T15:18:47;14.13;;;2.35;;
53261;SDS011;39658;51.090;-1.786;2023-02-01T15:21:17;7.95;;;2.42;;
53261;SDS011;39658;51.090;-1.786;2023-02-01T15:23:45;9.07;;;2.60;;
53261;SDS011;39658;51.090;-1.786;2023-02-01T15:26:26;10.93;;;2.70;;
53261;SDS011;39658;51.090;-1.786;2023-02-01T15:28:55;12.18;;;2.95;;
53261;SDS011;39658;51.090;-1.786;2023-02-01T15:31:33;9.32;;;2.72;;
53261;SDS011;39658;51.090;-1.786;2023-02-01T15:34:01;11.43;;;2.80;;
53261;SDS011;39658;51.090;-1.786;2023-02-01T15:36:30;10.55;;;3.10;;
53261;SDS011;39658;51.090;-1.786;2023-02-01T15:39:14;9.57;;;2.70;;
53261;SDS011;39658;51.090;-1.786;2023-02-01T15:41:48;10.90;;;2.92;;
53261;SDS011;39658;51.090;-1.786;2023-02-01T15:44:21;8.23;;;2.63;;
53261;SDS011;39658;51.090;-1.786;2023-02-01T15:47:05;9.40;;;2.50;;